createdAt,value
2017-03-22T00:00:00.075Z,8.59
2017-03-22T00:00:21.777Z,8.62
2017-03-22T00:00:43.467Z,8.58
2017-03-22T00:01:10.026Z,8.56
2017-03-22T00:01:31.715Z,8.50
2017-03-22T00:01:53.420Z,8.32
2017-03-22T00:02:15.122Z,8.36
2017-03-22T00:02:36.908Z,8.38
2017-03-22T00:02:58.608Z,8.42
2017-03-22T00:03:20.314Z,8.39
2017-03-22T00:03:42.002Z,8.41
2017-03-22T00:04:18.031Z,8.40
2017-03-22T00:04:40.502Z,8.41
2017-03-22T00:05:02.234Z,8.40
2017-03-22T00:05:23.936Z,8.33
2017-03-22T00:05:55.281Z,8.29
2017-03-22T00:06:16.976Z,8.17
2017-03-22T00:06:48.262Z,8.10
2017-03-22T00:07:10.048Z,8.14
2017-03-22T00:07:31.754Z,8.16
2017-03-22T00:07:53.464Z,8.17
2017-03-22T00:08:15.164Z,8.19
2017-03-22T00:08:41.741Z,8.16
2017-03-22T00:09:03.416Z,8.24
2017-03-22T00:09:25.119Z,8.27
2017-03-22T00:09:46.826Z,8.26
2017-03-22T00:10:08.657Z,8.23
2017-03-22T00:10:30.356Z,8.13
2017-03-22T00:10:52.056Z,8.19
2017-03-22T00:11:13.736Z,8.29
2017-03-22T00:11:45.099Z,8.31
2017-03-22T00:12:06.810Z,8.37
2017-03-22T00:12:42.847Z,8.41
2017-03-22T00:13:05.190Z,8.46
2017-03-22T00:13:26.894Z,8.46
2017-03-22T00:13:48.595Z,8.45
2017-03-22T00:14:19.950Z,8.44
2017-03-22T00:14:41.636Z,8.49
2017-03-22T00:15:03.364Z,8.48
2017-03-22T00:15:25.088Z,8.48
2017-03-22T00:15:46.867Z,8.52
2017-03-22T00:16:49.398Z,8.46
2017-03-22T00:17:15.847Z,8.43
2017-03-22T00:17:37.549Z,8.40
2017-03-22T00:18:08.816Z,8.51
2017-03-22T00:18:30.590Z,8.62
2017-03-22T00:18:52.284Z,8.64
2017-03-22T00:19:13.982Z,8.70
2017-03-22T00:19:35.672Z,8.67
2017-03-22T00:20:02.262Z,8.58
2017-03-22T00:20:23.974Z,8.49
2017-03-22T00:20:50.454Z,8.44
2017-03-22T00:21:12.240Z,8.50
2017-03-22T00:21:33.953Z,8.53
2017-03-22T00:21:55.654Z,8.60
2017-03-22T00:22:17.346Z,8.56
2017-03-22T00:22:39.128Z,8.64
2017-03-22T00:23:05.594Z,8.62
2017-03-22T00:23:27.289Z,8.67
2017-03-22T00:23:48.992Z,8.63
2017-03-22T00:24:20.320Z,8.58
2017-03-22T00:24:42.035Z,8.47
2017-03-22T00:25:08.547Z,8.53
2017-03-22T00:25:30.266Z,8.60
2017-03-22T00:25:56.807Z,8.54
2017-03-22T00:26:18.515Z,8.61
2017-03-22T00:26:44.985Z,8.63
2017-03-22T00:27:06.670Z,8.55
2017-03-22T00:27:28.455Z,8.60
2017-03-22T00:27:50.164Z,8.57
2017-03-22T00:28:11.864Z,8.58
2017-03-22T00:28:33.565Z,8.56
2017-03-22T00:28:55.356Z,8.57
2017-03-22T00:29:17.065Z,8.54
2017-03-22T00:29:38.765Z,8.54
2017-03-22T00:30:00.474Z,8.52
2017-03-22T00:30:28.049Z,8.44
2017-03-22T00:30:49.778Z,8.44
2017-03-22T00:31:11.475Z,8.44
2017-03-22T00:31:33.198Z,8.50
2017-03-22T00:31:55.105Z,8.44
2017-03-22T00:32:31.143Z,8.45
2017-03-22T00:32:53.403Z,8.50
2017-03-22T00:33:15.201Z,8.43
2017-03-22T00:33:36.905Z,8.40
2017-03-22T00:33:58.614Z,8.35
2017-03-22T00:34:20.306Z,8.16
2017-03-22T00:34:46.873Z,8.13
2017-03-22T00:35:08.569Z,8.14
2017-03-22T00:35:39.816Z,8.10
2017-03-22T00:36:01.593Z,8.11
2017-03-22T00:36:23.287Z,8.06
2017-03-22T00:36:45.005Z,8.05
2017-03-22T00:37:06.693Z,8.07
2017-03-22T00:37:28.487Z,8.04
2017-03-22T00:37:59.738Z,8.04
2017-03-22T00:38:21.434Z,8.02
2017-03-22T00:38:43.227Z,8.00
2017-03-22T00:39:14.596Z,7.96
2017-03-22T00:39:45.899Z,7.99
2017-03-22T00:41:27.671Z,8.25
2017-03-22T00:41:54.178Z,8.19
2017-03-22T00:42:15.914Z,8.21
2017-03-22T00:42:42.396Z,8.23
2017-03-22T00:43:04.130Z,8.23
2017-03-22T00:43:30.622Z,8.19
2017-03-22T00:44:33.177Z,8.10
2017-03-22T00:44:59.666Z,8.11
2017-03-22T00:45:21.362Z,8.19
2017-03-22T00:45:43.058Z,8.15
2017-03-22T00:46:04.772Z,8.20
2017-03-22T00:46:26.460Z,8.24
2017-03-22T00:46:48.200Z,8.31
2017-03-22T00:47:09.933Z,8.32
2017-03-22T00:47:41.184Z,8.36
2017-03-22T00:48:02.915Z,8.34
2017-03-22T00:48:24.667Z,8.40
2017-03-22T00:48:46.460Z,8.43
2017-03-22T00:49:49.222Z,8.44
2017-03-22T00:50:10.843Z,8.49
2017-03-22T00:50:37.317Z,8.52
2017-03-22T00:51:03.940Z,8.46
2017-03-22T00:51:25.703Z,8.38
2017-03-22T00:51:52.311Z,8.38
2017-03-22T00:52:14.047Z,8.34
2017-03-22T00:52:45.330Z,8.30
2017-03-22T00:53:07.082Z,8.31
2017-03-22T00:53:38.348Z,8.33
2017-03-22T00:54:00.081Z,8.29
2017-03-22T00:54:31.339Z,8.35
2017-03-22T00:54:53.063Z,8.39
2017-03-22T00:55:19.590Z,8.41
2017-03-22T00:56:31.654Z,8.43
2017-03-22T00:56:53.401Z,8.42
2017-03-22T00:57:19.978Z,8.36
2017-03-22T00:57:41.747Z,8.35
2017-03-22T00:58:44.547Z,8.42
2017-03-22T00:59:15.675Z,8.46
2017-03-22T00:59:37.408Z,8.51
2017-03-22T01:00:03.897Z,8.52
2017-03-22T01:00:25.645Z,8.44
2017-03-22T01:00:52.168Z,8.44
2017-03-22T01:01:13.922Z,8.34
2017-03-22T01:01:45.174Z,8.30
2017-03-22T01:02:06.873Z,8.34
2017-03-22T01:02:28.574Z,8.35
2017-03-22T01:02:50.297Z,8.32
2017-03-22T01:03:11.997Z,8.36
2017-03-22T01:03:33.698Z,8.37
2017-03-22T01:03:55.414Z,8.34
2017-03-22T01:04:17.153Z,8.36
2017-03-22T01:04:38.856Z,8.41
2017-03-22T01:05:00.577Z,8.49
2017-03-22T01:05:22.291Z,8.42
2017-03-22T01:05:44.003Z,8.42
2017-03-22T01:06:05.714Z,8.37
2017-03-22T01:06:27.442Z,8.36
2017-03-22T01:06:49.164Z,8.38
2017-03-22T01:07:10.900Z,8.38
2017-03-22T01:07:32.635Z,8.41
2017-03-22T01:07:54.377Z,8.39
2017-03-22T01:08:16.090Z,8.36
2017-03-22T01:08:37.790Z,8.31
2017-03-22T01:08:59.502Z,8.25
2017-03-22T01:09:21.238Z,8.25
2017-03-22T01:09:47.796Z,8.23
2017-03-22T01:10:09.504Z,8.29
2017-03-22T01:10:31.227Z,8.34
2017-03-22T01:10:52.902Z,8.36
2017-03-22T01:11:14.630Z,8.33
2017-03-22T01:11:36.365Z,8.38
2017-03-22T01:11:58.105Z,8.39
2017-03-22T01:12:19.830Z,8.38
2017-03-22T01:12:41.555Z,8.38
2017-03-22T01:13:03.303Z,8.43
2017-03-22T01:13:25.029Z,8.51
2017-03-22T01:13:46.759Z,8.51
2017-03-22T01:14:08.478Z,8.56
2017-03-22T01:14:30.273Z,8.56
2017-03-22T01:14:52.017Z,8.52
2017-03-22T01:15:13.722Z,8.46
2017-03-22T01:15:35.422Z,8.43
2017-03-22T01:15:57.154Z,8.37
2017-03-22T01:16:18.895Z,8.34
2017-03-22T01:16:40.630Z,8.36
2017-03-22T01:17:02.372Z,8.40
2017-03-22T01:17:24.100Z,8.47
2017-03-22T01:17:45.829Z,8.55
2017-03-22T01:18:07.543Z,8.61
2017-03-22T01:18:29.279Z,8.64
2017-03-22T01:18:51.003Z,8.63
2017-03-22T01:19:12.742Z,8.63
2017-03-22T01:19:34.480Z,8.62
2017-03-22T01:19:56.202Z,8.58
2017-03-22T01:20:17.935Z,8.59
2017-03-22T01:20:39.663Z,8.56
2017-03-22T01:21:01.386Z,8.57
2017-03-22T01:21:23.115Z,8.55
2017-03-22T01:21:44.881Z,8.56
2017-03-22T01:22:06.603Z,8.54
2017-03-22T01:22:28.326Z,8.51
2017-03-22T01:22:50.060Z,8.48
2017-03-22T01:23:11.887Z,8.43
2017-03-22T01:23:33.588Z,8.47
2017-03-22T01:23:55.285Z,8.51
2017-03-22T01:24:16.995Z,8.57
2017-03-22T01:24:38.723Z,8.48
2017-03-22T01:25:00.472Z,8.43
2017-03-22T01:25:22.203Z,8.42
2017-03-22T01:25:43.916Z,8.42
2017-03-22T01:26:05.688Z,8.44
2017-03-22T01:26:27.401Z,8.44
2017-03-22T01:26:49.169Z,8.44
2017-03-22T01:27:10.937Z,8.51
2017-03-22T01:27:32.666Z,8.51
2017-03-22T01:27:54.409Z,8.54
2017-03-22T01:28:16.142Z,8.54
2017-03-22T01:28:37.843Z,8.52
2017-03-22T01:28:59.550Z,8.52
2017-03-22T01:29:21.266Z,8.47
2017-03-22T01:29:43.001Z,8.49
2017-03-22T01:30:04.729Z,8.48
2017-03-22T01:30:26.722Z,8.50
2017-03-22T01:30:48.328Z,8.56
2017-03-22T01:31:10.066Z,8.55
2017-03-22T01:31:31.795Z,8.60
2017-03-22T01:31:53.533Z,8.61
2017-03-22T01:32:15.322Z,8.55
2017-03-22T01:32:37.056Z,8.58
2017-03-22T01:32:58.824Z,8.56
2017-03-22T01:33:20.567Z,8.57
2017-03-22T01:33:42.308Z,8.54
2017-03-22T01:34:04.036Z,8.57
2017-03-22T01:34:25.785Z,8.54
2017-03-22T01:34:47.508Z,8.56
2017-03-22T01:35:09.251Z,8.52
2017-03-22T01:35:31.021Z,8.53
2017-03-22T01:35:52.772Z,8.47
2017-03-22T01:36:14.504Z,8.40
2017-03-22T01:36:36.240Z,8.35
2017-03-22T01:36:57.998Z,8.37
2017-03-22T01:37:19.735Z,8.39
2017-03-22T01:37:41.456Z,8.41
2017-03-22T01:38:03.203Z,8.42
2017-03-22T01:38:24.951Z,8.34
2017-03-22T01:38:46.678Z,8.35
2017-03-22T01:39:08.405Z,8.33
2017-03-22T01:39:30.146Z,8.30
2017-03-22T01:39:51.908Z,8.26
2017-03-22T01:40:13.630Z,8.26
2017-03-22T01:41:16.165Z,8.30
2017-03-22T01:41:37.890Z,8.32
2017-03-22T01:41:59.641Z,8.23
2017-03-22T01:42:21.361Z,8.09
2017-03-22T01:42:43.079Z,8.07
2017-03-22T01:43:04.827Z,8.09
2017-03-22T01:43:26.596Z,8.04
2017-03-22T01:43:48.304Z,8.00
2017-03-22T01:44:10.003Z,8.05
2017-03-22T01:44:31.721Z,8.09
2017-03-22T01:45:07.753Z,8.17
2017-03-22T01:45:44.351Z,8.20
2017-03-22T01:46:06.548Z,8.18
2017-03-22T01:46:33.059Z,8.14
2017-03-22T01:46:54.785Z,8.21
2017-03-22T01:47:16.512Z,8.30
2017-03-22T01:47:38.240Z,8.32
2017-03-22T01:47:59.960Z,8.31
2017-03-22T01:48:21.695Z,8.18
2017-03-22T01:48:43.452Z,8.14
2017-03-22T01:49:05.164Z,8.18
2017-03-22T01:49:27.929Z,8.14
2017-03-22T01:49:54.433Z,8.11
2017-03-22T01:50:16.167Z,8.10
2017-03-22T01:50:37.908Z,8.10
2017-03-22T01:51:13.935Z,8.12
2017-03-22T01:51:36.546Z,8.13
2017-03-22T01:51:59.625Z,8.12
2017-03-22T01:52:30.999Z,8.08
2017-03-22T01:52:55.481Z,8.11
2017-03-22T01:53:22.130Z,8.14
2017-03-22T01:53:44.019Z,8.17
2017-03-22T01:54:20.087Z,8.14
2017-03-22T01:54:47.265Z,8.16
2017-03-22T01:55:23.306Z,8.12
2017-03-22T01:55:45.920Z,8.09
2017-03-22T01:56:21.974Z,8.19
2017-03-22T01:56:44.361Z,8.19
2017-03-22T01:57:06.161Z,8.16
2017-03-22T01:57:32.663Z,8.12
2017-03-22T01:57:54.500Z,8.10
2017-03-22T01:58:30.555Z,8.03
2017-03-22T01:58:57.643Z,8.00
2017-03-22T01:59:24.336Z,8.00
2017-03-22T01:59:46.100Z,8.02
2017-03-22T02:00:12.627Z,8.00
2017-03-22T02:00:34.485Z,8.03
2017-03-22T02:01:01.106Z,8.03
2017-03-22T02:01:22.930Z,8.08
2017-03-22T02:01:49.627Z,8.12
2017-03-22T02:02:11.492Z,8.12
2017-03-22T02:02:38.031Z,8.03
2017-03-22T02:03:04.568Z,8.01
2017-03-22T02:03:26.340Z,7.98
2017-03-22T02:03:57.628Z,8.04
2017-03-22T02:04:22.103Z,8.07
2017-03-22T02:04:48.598Z,8.09
2017-03-22T02:05:10.406Z,8.08
2017-03-22T02:05:41.849Z,8.11
2017-03-22T02:06:03.603Z,8.10
2017-03-22T02:06:34.878Z,8.14
2017-03-22T02:06:56.708Z,8.10
2017-03-22T02:07:18.468Z,8.11
2017-03-22T02:07:44.970Z,8.07
2017-03-22T02:08:06.766Z,8.05
2017-03-22T02:08:28.633Z,8.03
2017-03-22T02:08:50.452Z,8.04
2017-03-22T02:09:12.204Z,8.00
2017-03-22T02:09:38.867Z,7.97
2017-03-22T02:10:41.430Z,8.05
2017-03-22T02:11:18.032Z,7.98
2017-03-22T02:11:45.651Z,7.96
2017-03-22T02:12:13.198Z,7.96
2017-03-22T02:12:35.026Z,7.95
2017-03-22T02:13:11.193Z,7.92
2017-03-22T02:13:33.510Z,7.94
2017-03-22T02:13:55.294Z,7.92
2017-03-22T02:14:21.796Z,7.90
2017-03-22T02:14:43.591Z,7.88
2017-03-22T02:15:10.196Z,7.83
2017-03-22T02:15:31.914Z,7.85
2017-03-22T02:16:35.531Z,8.07
2017-03-22T02:16:57.281Z,8.11
2017-03-22T02:17:19.028Z,8.11
2017-03-22T02:17:45.640Z,8.16
2017-03-22T02:18:07.379Z,8.21
2017-03-22T02:18:38.687Z,8.23
2017-03-22T02:19:00.441Z,8.23
2017-03-22T02:19:36.608Z,8.17
2017-03-22T02:19:59.151Z,8.24
2017-03-22T02:20:20.914Z,8.28
2017-03-22T02:20:42.645Z,8.28
2017-03-22T02:21:04.367Z,8.26
2017-03-22T02:21:26.172Z,8.24
2017-03-22T02:21:47.908Z,8.24
2017-03-22T02:22:09.732Z,8.24
2017-03-22T02:22:31.546Z,8.25
2017-03-22T02:22:53.564Z,8.25
2017-03-22T02:23:56.038Z,8.30
2017-03-22T02:24:17.984Z,8.34
2017-03-22T02:24:39.709Z,8.25
2017-03-22T02:25:01.442Z,8.25
2017-03-22T02:25:23.183Z,8.29
2017-03-22T02:25:45.000Z,8.33
2017-03-22T02:26:06.753Z,8.30
2017-03-22T02:26:28.500Z,8.33
2017-03-22T02:26:50.279Z,8.32
2017-03-22T02:27:12.198Z,8.26
2017-03-22T02:27:34.023Z,8.21
2017-03-22T02:27:55.799Z,8.15
2017-03-22T02:28:17.541Z,8.14
2017-03-22T02:28:39.389Z,8.15
2017-03-22T02:29:01.179Z,8.20
2017-03-22T02:29:22.905Z,8.16
2017-03-22T02:29:44.652Z,8.17
2017-03-22T02:30:06.506Z,8.17
2017-03-22T02:30:28.267Z,8.14
2017-03-22T02:30:50.040Z,8.10
2017-03-22T02:31:11.820Z,8.15
2017-03-22T02:31:33.641Z,8.19
2017-03-22T02:32:00.149Z,8.22
2017-03-22T02:33:02.702Z,8.25
2017-03-22T02:33:24.512Z,8.27
2017-03-22T02:33:46.273Z,8.29
2017-03-22T02:34:08.088Z,8.30
2017-03-22T02:34:29.902Z,8.24
2017-03-22T02:34:51.755Z,8.17
2017-03-22T02:35:13.500Z,8.13
2017-03-22T02:35:35.295Z,8.15
2017-03-22T02:35:57.029Z,8.13
2017-03-22T02:36:59.524Z,8.01
2017-03-22T02:37:21.272Z,7.99
2017-03-22T02:37:43.103Z,8.02
2017-03-22T02:38:04.956Z,8.02
2017-03-22T02:38:26.805Z,7.99
2017-03-22T02:38:48.555Z,8.02
2017-03-22T02:39:10.320Z,7.97
2017-03-22T02:39:32.201Z,8.01
2017-03-22T02:39:53.957Z,7.94
2017-03-22T02:40:15.741Z,7.88
2017-03-22T02:40:42.346Z,7.95
2017-03-22T02:41:06.919Z,8.00
2017-03-22T02:41:38.212Z,8.05
2017-03-22T02:42:02.934Z,8.04
2017-03-22T02:42:31.898Z,8.09
2017-03-22T02:43:03.208Z,8.13
2017-03-22T02:43:25.041Z,8.13
2017-03-22T02:43:56.352Z,8.15
2017-03-22T02:44:18.154Z,8.12
2017-03-22T02:44:44.738Z,8.12
2017-03-22T02:45:06.501Z,8.16
2017-03-22T02:45:33.038Z,8.18
2017-03-22T02:45:54.889Z,8.07
2017-03-22T02:46:21.457Z,8.06
2017-03-22T02:46:43.248Z,8.08
2017-03-22T02:47:09.779Z,8.07
2017-03-22T02:47:32.689Z,8.10
2017-03-22T02:47:59.182Z,8.17
2017-03-22T02:48:20.936Z,8.17
2017-03-22T02:48:43.983Z,8.19
2017-03-22T02:49:20.122Z,8.21
2017-03-22T02:49:42.405Z,8.24
2017-03-22T02:50:04.104Z,8.27
2017-03-22T02:50:25.824Z,8.25
2017-03-22T02:50:47.516Z,8.21
2017-03-22T02:51:09.217Z,8.13
2017-03-22T02:51:31.167Z,8.11
2017-03-22T02:51:53.072Z,8.12
2017-03-22T02:52:14.819Z,8.11
2017-03-22T02:52:36.563Z,8.11
2017-03-22T02:52:58.424Z,8.12
2017-03-22T02:53:20.192Z,8.11
2017-03-22T02:53:41.954Z,8.08
2017-03-22T02:54:03.735Z,8.11
2017-03-22T02:54:25.611Z,8.08
2017-03-22T02:54:47.364Z,8.14
2017-03-22T02:55:09.089Z,8.10
2017-03-22T02:55:30.817Z,8.03
2017-03-22T02:55:52.691Z,8.02
2017-03-22T02:56:14.467Z,8.03
2017-03-22T02:56:36.298Z,8.06
2017-03-22T02:56:58.190Z,8.10
2017-03-22T02:57:20.113Z,8.10
2017-03-22T02:57:41.875Z,8.05
2017-03-22T02:58:03.662Z,8.07
2017-03-22T02:58:25.524Z,8.04
2017-03-22T02:58:47.349Z,8.03
2017-03-22T02:59:09.132Z,8.07
2017-03-22T02:59:30.870Z,8.06
2017-03-22T02:59:52.671Z,8.00
2017-03-22T03:00:14.627Z,8.03
2017-03-22T03:00:36.563Z,8.02
2017-03-22T03:00:58.381Z,7.99
2017-03-22T03:01:20.164Z,7.88
2017-03-22T03:01:41.980Z,7.90
2017-03-22T03:02:03.740Z,7.94
2017-03-22T03:02:30.319Z,7.88
2017-03-22T03:03:06.506Z,7.86
2017-03-22T03:03:28.893Z,7.90
2017-03-22T03:03:50.590Z,7.92
2017-03-22T03:04:12.306Z,7.95
2017-03-22T03:04:34.019Z,7.98
2017-03-22T03:04:55.760Z,8.03
2017-03-22T03:05:17.508Z,8.06
2017-03-22T03:05:39.284Z,8.04
2017-03-22T03:06:01.015Z,8.06
2017-03-22T03:06:22.737Z,8.01
2017-03-22T03:06:44.741Z,8.00
2017-03-22T03:07:06.450Z,8.03
2017-03-22T03:07:28.184Z,8.06
2017-03-22T03:07:49.929Z,8.12
2017-03-22T03:08:11.678Z,8.14
2017-03-22T03:08:33.420Z,8.13
2017-03-22T03:08:55.139Z,8.12
2017-03-22T03:09:16.867Z,8.10
2017-03-22T03:09:38.598Z,8.13
2017-03-22T03:10:00.520Z,8.13
2017-03-22T03:10:22.231Z,8.12
2017-03-22T03:10:44.024Z,8.13
2017-03-22T03:11:05.814Z,8.10
2017-03-22T03:11:27.511Z,8.10
2017-03-22T03:11:49.235Z,8.11
2017-03-22T03:12:10.979Z,8.12
2017-03-22T03:12:35.323Z,8.12
2017-03-22T03:12:57.045Z,8.13
2017-03-22T03:13:18.791Z,8.09
2017-03-22T03:13:40.480Z,8.03
2017-03-22T03:14:02.454Z,7.96
2017-03-22T03:14:24.258Z,7.98
2017-03-22T03:14:46.069Z,8.04
2017-03-22T03:15:07.889Z,8.06
2017-03-22T03:15:29.690Z,8.07
2017-03-22T03:15:56.267Z,8.10
2017-03-22T03:16:17.995Z,8.07
2017-03-22T03:16:39.703Z,8.02
2017-03-22T03:17:06.299Z,8.05
2017-03-22T03:17:28.025Z,8.06
2017-03-22T03:18:30.560Z,8.15
2017-03-22T03:18:52.287Z,8.12
2017-03-22T03:19:23.545Z,8.05
2017-03-22T03:19:45.227Z,8.01
2017-03-22T03:20:06.963Z,7.99
2017-03-22T03:20:28.672Z,7.95
2017-03-22T03:20:50.353Z,7.95
2017-03-22T03:21:12.097Z,7.95
2017-03-22T03:21:33.818Z,8.00
2017-03-22T03:22:05.080Z,8.05
2017-03-22T03:22:31.677Z,8.06
2017-03-22T03:22:53.373Z,8.07
2017-03-22T03:23:15.105Z,8.05
2017-03-22T03:23:36.854Z,8.00
2017-03-22T03:23:58.594Z,7.99
2017-03-22T03:24:20.537Z,8.02
2017-03-22T03:24:42.271Z,8.08
2017-03-22T03:25:44.821Z,8.11
2017-03-22T03:26:06.546Z,8.11
2017-03-22T03:26:28.381Z,8.11
2017-03-22T03:26:50.120Z,8.16
2017-03-22T03:27:11.823Z,8.12
2017-03-22T03:27:38.332Z,8.08
2017-03-22T03:28:00.024Z,8.06
2017-03-22T03:28:21.735Z,8.10
2017-03-22T03:28:48.253Z,8.17
2017-03-22T03:29:10.103Z,8.23
2017-03-22T03:29:36.557Z,8.22
2017-03-22T03:29:58.261Z,8.14
2017-03-22T03:30:19.981Z,8.15
2017-03-22T03:30:41.707Z,8.15
2017-03-22T03:31:03.421Z,8.14
2017-03-22T03:31:25.160Z,8.21
2017-03-22T03:31:46.913Z,8.25
2017-03-22T03:32:08.649Z,8.23
2017-03-22T03:32:30.382Z,8.17
2017-03-22T03:32:52.105Z,8.14
2017-03-22T03:33:13.833Z,8.11
2017-03-22T03:33:35.560Z,8.08
2017-03-22T03:33:57.295Z,8.06
2017-03-22T03:34:19.020Z,8.08
2017-03-22T03:34:40.748Z,8.14
2017-03-22T03:35:02.494Z,8.10
2017-03-22T03:35:24.255Z,8.02
2017-03-22T03:35:45.974Z,8.06
2017-03-22T03:36:07.715Z,8.03
2017-03-22T03:36:29.466Z,8.02
2017-03-22T03:36:51.165Z,7.98
2017-03-22T03:37:12.861Z,8.00
2017-03-22T03:37:39.360Z,8.03
2017-03-22T03:38:01.071Z,8.08
2017-03-22T03:38:37.111Z,8.05
2017-03-22T03:38:59.439Z,8.06
2017-03-22T03:39:21.160Z,8.07
2017-03-22T03:40:23.694Z,7.77
2017-03-22T03:40:45.419Z,7.64
2017-03-22T03:41:16.689Z,7.66
2017-03-22T03:41:38.413Z,7.72
2017-03-22T03:42:00.133Z,7.69
2017-03-22T03:42:31.388Z,7.68
2017-03-22T03:42:53.113Z,7.73
2017-03-22T03:43:14.845Z,7.74
2017-03-22T03:43:46.104Z,7.82
2017-03-22T03:44:07.869Z,7.86
2017-03-22T03:44:29.601Z,7.92
2017-03-22T03:44:56.094Z,7.92
2017-03-22T03:45:17.850Z,7.91
2017-03-22T03:45:39.579Z,7.90
2017-03-22T03:46:06.094Z,7.89
2017-03-22T03:46:27.823Z,7.90
2017-03-22T03:46:59.075Z,7.96
2017-03-22T03:47:20.806Z,8.00
2017-03-22T03:47:42.545Z,8.00
2017-03-22T03:48:04.514Z,7.96
2017-03-22T03:48:26.382Z,7.96
2017-03-22T03:48:48.159Z,7.93
2017-03-22T03:49:09.895Z,7.87
2017-03-22T03:49:31.644Z,7.87
2017-03-22T03:49:53.389Z,7.93
2017-03-22T03:50:15.120Z,7.99
2017-03-22T03:50:36.853Z,8.04
2017-03-22T03:50:58.624Z,8.10
2017-03-22T03:51:20.374Z,8.14
2017-03-22T03:51:42.062Z,8.15
2017-03-22T03:52:03.768Z,8.10
2017-03-22T03:52:35.079Z,8.06
2017-03-22T03:52:56.799Z,8.09
2017-03-22T03:53:18.563Z,8.16
2017-03-22T03:53:40.287Z,8.14
2017-03-22T03:54:02.032Z,8.07
2017-03-22T03:54:23.767Z,8.08
2017-03-22T03:54:50.265Z,8.12
2017-03-22T03:55:12.004Z,8.07
2017-03-22T03:55:38.501Z,8.13
2017-03-22T03:56:00.220Z,8.12
2017-03-22T03:56:21.964Z,8.12
2017-03-22T03:56:43.715Z,8.13
2017-03-22T03:57:05.460Z,8.19
2017-03-22T03:57:27.177Z,8.13
2017-03-22T03:57:48.919Z,8.08
2017-03-22T03:58:10.823Z,8.05
2017-03-22T03:58:32.555Z,7.97
2017-03-22T03:58:54.473Z,7.92
2017-03-22T03:59:56.975Z,7.70
2017-03-22T04:00:28.228Z,7.67
2017-03-22T04:00:49.950Z,7.62
2017-03-22T04:01:11.646Z,7.62
2017-03-22T04:01:33.349Z,7.63
2017-03-22T04:01:55.076Z,7.66
2017-03-22T04:02:17.811Z,7.67
2017-03-22T04:02:44.281Z,7.74
2017-03-22T04:03:06.008Z,7.79
2017-03-22T04:03:27.735Z,7.81
2017-03-22T04:03:49.458Z,7.86
2017-03-22T04:04:11.216Z,7.79
2017-03-22T04:04:32.940Z,7.81
2017-03-22T04:04:54.651Z,7.76
2017-03-22T04:05:16.376Z,7.80
2017-03-22T04:05:38.112Z,7.86
2017-03-22T04:06:00.030Z,7.87
2017-03-22T04:06:21.756Z,7.84
2017-03-22T04:06:43.494Z,7.84
2017-03-22T04:07:05.262Z,7.85
2017-03-22T04:07:26.994Z,7.88
2017-03-22T04:07:48.730Z,7.88
2017-03-22T04:08:10.468Z,7.88
2017-03-22T04:08:32.196Z,7.88
2017-03-22T04:08:53.919Z,7.95
2017-03-22T04:09:15.673Z,7.95
2017-03-22T04:09:37.374Z,7.99
2017-03-22T04:09:59.116Z,8.01
2017-03-22T04:10:20.835Z,8.02
2017-03-22T04:10:42.555Z,8.06
2017-03-22T04:11:04.336Z,8.05
2017-03-22T04:11:26.068Z,8.06
2017-03-22T04:11:47.807Z,8.08
2017-03-22T04:12:19.061Z,8.10
2017-03-22T04:12:40.754Z,8.07
2017-03-22T04:13:02.498Z,8.10
2017-03-22T04:13:24.235Z,8.11
2017-03-22T04:13:45.969Z,8.13
2017-03-22T04:14:07.710Z,8.14
2017-03-22T04:14:29.427Z,8.12
2017-03-22T04:14:51.229Z,8.05
2017-03-22T04:15:53.793Z,7.96
2017-03-22T04:16:20.341Z,7.88
2017-03-22T04:16:42.126Z,7.81
2017-03-22T04:17:03.817Z,7.76
2017-03-22T04:17:25.609Z,7.83
2017-03-22T04:17:47.304Z,7.86
2017-03-22T04:18:09.010Z,7.87
2017-03-22T04:18:30.706Z,7.92
2017-03-22T04:18:52.533Z,7.92
2017-03-22T04:19:14.222Z,7.91
2017-03-22T04:19:35.930Z,7.87
2017-03-22T04:20:02.480Z,7.84
2017-03-22T04:20:24.169Z,7.86
2017-03-22T04:20:45.874Z,7.80
2017-03-22T04:21:07.571Z,7.79
2017-03-22T04:21:29.360Z,7.77
2017-03-22T04:21:51.057Z,7.78
2017-03-22T04:22:12.760Z,7.77
2017-03-22T04:22:34.466Z,7.79
2017-03-22T04:22:56.251Z,7.78
2017-03-22T04:23:17.953Z,7.81
2017-03-22T04:23:39.650Z,7.86
2017-03-22T04:24:06.225Z,7.82
2017-03-22T04:24:27.921Z,7.76
2017-03-22T04:24:49.631Z,7.78
2017-03-22T04:25:21.000Z,7.68
2017-03-22T04:25:42.707Z,7.66
2017-03-22T04:26:18.743Z,7.61
2017-03-22T04:26:41.133Z,7.55
2017-03-22T04:27:02.821Z,7.51
2017-03-22T04:27:29.300Z,7.56
2017-03-22T04:27:50.993Z,7.60
2017-03-22T04:28:12.787Z,7.61
2017-03-22T04:28:34.483Z,7.61
2017-03-22T04:28:56.175Z,7.54
2017-03-22T04:29:27.504Z,7.52
2017-03-22T04:29:49.225Z,7.53
2017-03-22T04:30:10.930Z,7.54
2017-03-22T04:30:32.626Z,7.52
2017-03-22T04:30:54.414Z,7.52
2017-03-22T04:31:20.885Z,7.55
2017-03-22T04:31:42.636Z,7.51
2017-03-22T04:32:04.419Z,7.51
2017-03-22T04:32:30.923Z,7.48
2017-03-22T04:32:52.629Z,7.47
2017-03-22T04:33:14.414Z,7.52
2017-03-22T04:33:45.663Z,7.66
2017-03-22T04:34:07.371Z,7.66
2017-03-22T04:34:43.409Z,7.76
2017-03-22T04:35:05.792Z,7.78
2017-03-22T04:36:08.376Z,7.79
2017-03-22T04:36:30.070Z,7.84
2017-03-22T04:36:51.791Z,7.91
2017-03-22T04:37:13.492Z,7.95
2017-03-22T04:37:40.086Z,7.93
2017-03-22T04:38:01.782Z,7.94
2017-03-22T04:38:23.478Z,7.98
2017-03-22T04:38:45.175Z,8.02
2017-03-22T04:39:06.937Z,8.07
2017-03-22T04:39:28.642Z,8.05
2017-03-22T04:39:59.897Z,8.02
2017-03-22T04:40:21.671Z,7.99
2017-03-22T04:40:48.152Z,7.93
2017-03-22T04:41:09.862Z,7.97
2017-03-22T04:41:31.649Z,8.00
2017-03-22T04:41:53.364Z,7.96
2017-03-22T04:42:15.063Z,8.00
2017-03-22T04:42:36.765Z,8.03
2017-03-22T04:42:58.588Z,8.03
2017-03-22T04:43:20.291Z,8.03
2017-03-22T04:43:42.000Z,8.04
2017-03-22T04:44:03.703Z,8.04
2017-03-22T04:44:25.489Z,7.98
2017-03-22T04:44:47.184Z,7.98
2017-03-22T04:45:08.884Z,7.98
2017-03-22T04:45:40.228Z,7.99
2017-03-22T04:46:01.920Z,7.98
2017-03-22T04:47:09.272Z,7.95
2017-03-22T04:47:30.989Z,7.95
2017-03-22T04:48:07.023Z,7.95
2017-03-22T04:48:29.422Z,7.95
2017-03-22T04:48:51.125Z,7.92
2017-03-22T04:49:22.365Z,7.94
2017-03-22T04:49:44.148Z,7.85
2017-03-22T04:50:05.856Z,7.88
2017-03-22T04:50:41.889Z,7.92
2017-03-22T04:51:04.196Z,7.97
2017-03-22T04:51:25.891Z,7.92
2017-03-22T04:51:47.587Z,7.86
2017-03-22T04:52:09.313Z,7.81
2017-03-22T04:52:31.084Z,7.83
2017-03-22T04:53:07.121Z,7.89
2017-03-22T04:53:29.374Z,7.92
2017-03-22T04:53:55.906Z,7.87
2017-03-22T04:54:27.175Z,7.84
2017-03-22T04:54:48.862Z,7.84
2017-03-22T04:55:10.660Z,7.87
2017-03-22T04:55:32.383Z,7.89
2017-03-22T04:55:54.078Z,7.87
2017-03-22T04:56:15.780Z,7.88
2017-03-22T04:56:42.328Z,7.87
2017-03-22T04:57:04.030Z,7.84
2017-03-22T04:57:25.740Z,7.78
2017-03-22T04:57:52.220Z,7.80
2017-03-22T04:58:14.037Z,7.79
2017-03-22T04:58:35.762Z,7.82
2017-03-22T04:59:02.233Z,7.87
2017-03-22T04:59:24.015Z,7.85
2017-03-22T04:59:50.483Z,7.81
2017-03-22T05:00:12.173Z,7.77
2017-03-22T05:00:38.704Z,7.83
2017-03-22T05:01:00.396Z,7.86
2017-03-22T05:01:22.094Z,7.86
2017-03-22T05:01:48.586Z,7.92
2017-03-22T05:02:10.366Z,7.94
2017-03-22T05:02:41.611Z,7.96
2017-03-22T05:03:03.309Z,7.91
2017-03-22T05:03:25.121Z,7.82
2017-03-22T05:03:46.865Z,7.78
2017-03-22T05:04:08.560Z,7.83
2017-03-22T05:04:35.128Z,7.82
2017-03-22T05:04:56.830Z,7.86
2017-03-22T05:05:23.318Z,7.88
2017-03-22T05:05:45.026Z,7.89
2017-03-22T05:06:06.819Z,7.91
2017-03-22T05:06:28.512Z,7.80
2017-03-22T05:06:50.200Z,7.85
2017-03-22T05:07:21.448Z,7.89
2017-03-22T05:07:43.247Z,7.86
2017-03-22T05:08:09.793Z,7.64
2017-03-22T05:08:31.572Z,7.58
2017-03-22T05:08:53.274Z,7.58
2017-03-22T05:09:19.748Z,7.58
2017-03-22T05:09:41.437Z,7.66
2017-03-22T05:10:03.213Z,7.65
2017-03-22T05:10:29.700Z,7.72
2017-03-22T05:10:51.393Z,7.76
2017-03-22T05:11:17.950Z,7.75
2017-03-22T05:11:39.646Z,7.78
2017-03-22T05:12:15.675Z,7.81
2017-03-22T05:12:39.031Z,7.74
2017-03-22T05:13:00.749Z,7.67
2017-03-22T05:13:22.476Z,7.66
2017-03-22T05:13:44.165Z,7.63
2017-03-22T05:14:05.864Z,7.60
2017-03-22T05:14:27.566Z,7.55
2017-03-22T05:14:54.054Z,7.58
2017-03-22T05:15:15.833Z,7.66
2017-03-22T05:15:42.310Z,7.70
2017-03-22T05:16:04.006Z,7.61
2017-03-22T05:16:35.374Z,7.48
2017-03-22T05:16:57.082Z,7.51
2017-03-22T05:17:23.557Z,7.52
2017-03-22T05:17:45.254Z,7.56
2017-03-22T05:18:07.049Z,7.61
2017-03-22T05:18:28.770Z,7.64
2017-03-22T05:18:50.459Z,7.69
2017-03-22T05:19:17.006Z,7.69
2017-03-22T05:19:38.730Z,7.70
2017-03-22T05:20:00.425Z,7.72
2017-03-22T05:21:02.932Z,7.74
2017-03-22T05:21:24.630Z,7.77
2017-03-22T05:22:00.672Z,7.76
2017-03-22T05:22:23.036Z,7.76
2017-03-22T05:22:44.727Z,7.72
2017-03-22T05:23:16.055Z,7.64
2017-03-22T05:23:37.809Z,7.60
2017-03-22T05:24:04.312Z,7.64